sensor_id;sensor_type;location;lat;lon;timestamp;P1;durP1;ratioP1;P2;durP2;ratioP2
19036;SDS011;9651;49.138;8.900;2023-06-14T00:00:55;4.13;;;3.72;;
19036;SDS011;9651;49.138;8.900;2023-06-14T00:04:58;3.70;;;3.33;;
19036;SDS011;9651;49.138;8.900;2023-06-14T00:09:01;5.13;;;3.95;;
19036;SDS011;9651;49.138;8.900;2023-06-14T00:13:03;5.22;;;4.13;;
19036;SDS011;9651;49.138;8.900;2023-06-14T00:17:07;4.63;;;3.70;;
19036;SDS011;9651;49.138;8.900;2023-06-14T00:21:11;7.68;;;4.40;;
19036;SDS011;9651;49.138;8.900;2023-06-14T00:25:13;4.47;;;3.65;;
19036;SDS011;9651;49.138;8.900;2023-06-14T00:29:15;5.05;;;3.45;;
19036;SDS011;9651;49.138;8.900;2023-06-14T00:33:16;4.10;;;3.30;;
19036;SDS011;9651;49.138;8.900;2023-06-14T00:37:20;6.70;;;3.40;;
19036;SDS011;9651;49.138;8.900;2023-06-14T00:41:23;8.02;;;4.55;;
19036;SDS011;9651;49.138;8.900;2023-06-14T00:45:25;7.28;;;3.60;;
19036;SDS011;9651;49.138;8.900;2023-06-14T00:49:27;5.00;;;4.15;;
19036;SDS011;9651;49.138;8.900;2023-06-14T00:53:32;5.55;;;3.58;;
19036;SDS011;9651;49.138;8.900;2023-06-14T00:57:35;4.72;;;3.92;;
19036;SDS011;9651;49.138;8.900;2023-06-14T01:01:40;5.93;;;3.85;;
19036;SDS011;9651;49.138;8.900;2023-06-14T01:05:42;7.40;;;4.35;;
19036;SDS011;9651;49.138;8.900;2023-06-14T01:09:51;6.10;;;4.25;;
19036;SDS011;9651;49.138;8.900;2023-06-14T01:14:05;6.38;;;4.32;;
19036;SDS011;9651;49.138;8.900;2023-06-14T01:18:08;6.38;;;4.22;;
19036;SDS011;9651;49.138;8.900;2023-06-14T01:22:17;6.63;;;4.22;;
19036;SDS011;9651;49.138;8.900;2023-06-14T01:26:21;7.75;;;4.10;;
19036;SDS011;9651;49.138;8.900;2023-06-14T01:30:25;4.40;;;3.90;;
19036;SDS011;9651;49.138;8.900;2023-06-14T01:34:28;8.57;;;4.25;;
19036;SDS011;9651;49.138;8.900;2023-06-14T01:38:30;7.00;;;4.90;;
19036;SDS011;9651;49.138;8.900;2023-06-14T01:42:34;7.07;;;4.25;;
19036;SDS011;9651;49.138;8.900;2023-06-14T01:46:38;4.97;;;4.32;;
19036;SDS011;9651;49.138;8.900;2023-06-14T01:50:42;5.93;;;4.40;;
19036;SDS011;9651;49.138;8.900;2023-06-14T01:54:43;6.15;;;4.10;;
19036;SDS011;9651;49.138;8.900;2023-06-14T01:58:47;6.40;;;4.30;;
19036;SDS011;9651;49.138;8.900;2023-06-14T02:02:50;5.20;;;3.92;;
19036;SDS011;9651;49.138;8.900;2023-06-14T02:06:53;4.80;;;4.07;;
19036;SDS011;9651;49.138;8.900;2023-06-14T02:10:55;6.78;;;4.47;;
19036;SDS011;9651;49.138;8.900;2023-06-14T02:14:58;4.65;;;3.88;;
19036;SDS011;9651;49.138;8.900;2023-06-14T02:19:00;7.88;;;4.20;;
19036;SDS011;9651;49.138;8.900;2023-06-14T02:23:02;7.38;;;4.63;;
19036;SDS011;9651;49.138;8.900;2023-06-14T02:27:05;5.05;;;3.78;;
19036;SDS011;9651;49.138;8.900;2023-06-14T02:31:11;5.28;;;4.78;;
19036;SDS011;9651;49.138;8.900;2023-06-14T02:35:13;5.32;;;3.95;;
19036;SDS011;9651;49.138;8.900;2023-06-14T02:39:15;5.47;;;3.92;;
19036;SDS011;9651;49.138;8.900;2023-06-14T02:43:20;7.95;;;4.18;;
19036;SDS011;9651;49.138;8.900;2023-06-14T02:47:24;6.03;;;4.20;;
19036;SDS011;9651;49.138;8.900;2023-06-14T02:51:25;6.90;;;5.45;;
19036;SDS011;9651;49.138;8.900;2023-06-14T02:55:27;7.63;;;5.60;;
19036;SDS011;9651;49.138;8.900;2023-06-14T02:59:29;7.95;;;5.18;;
19036;SDS011;9651;49.138;8.900;2023-06-14T03:03:33;5.75;;;4.80;;
19036;SDS011;9651;49.138;8.900;2023-06-14T03:07:34;6.07;;;4.65;;
19036;SDS011;9651;49.138;8.900;2023-06-14T03:11:41;15.43;;;4.60;;
19036;SDS011;9651;49.138;8.900;2023-06-14T03:15:45;5.68;;;4.78;;
19036;SDS011;9651;49.138;8.900;2023-06-14T03:19:51;6.93;;;5.03;;
19036;SDS011;9651;49.138;8.900;2023-06-14T03:23:53;5.20;;;4.40;;
19036;SDS011;9651;49.138;8.900;2023-06-14T03:27:55;6.78;;;5.13;;
19036;SDS011;9651;49.138;8.900;2023-06-14T03:31:58;8.18;;;4.85;;
19036;SDS011;9651;49.138;8.900;2023-06-14T03:36:08;9.02;;;4.82;;
19036;SDS011;9651;49.138;8.900;2023-06-14T03:40:12;7.97;;;5.55;;
19036;SDS011;9651;49.138;8.900;2023-06-14T03:44:16;5.38;;;4.38;;
19036;SDS011;9651;49.138;8.900;2023-06-14T03:48:20;7.03;;;4.85;;
19036;SDS011;9651;49.138;8.900;2023-06-14T03:52:23;7.43;;;4.88;;
19036;SDS011;9651;49.138;8.900;2023-06-14T03:56:25;6.30;;;5.30;;
19036;SDS011;9651;49.138;8.900;2023-06-14T04:00:27;6.75;;;5.18;;
19036;SDS011;9651;49.138;8.900;2023-06-14T04:04:29;8.15;;;5.10;;
19036;SDS011;9651;49.138;8.900;2023-06-14T04:08:34;7.13;;;5.57;;
19036;SDS011;9651;49.138;8.900;2023-06-14T04:12:36;13.93;;;6.65;;
19036;SDS011;9651;49.138;8.900;2023-06-14T04:16:38;8.48;;;5.90;;
19036;SDS011;9651;49.138;8.900;2023-06-14T04:20:40;6.30;;;5.30;;
19036;SDS011;9651;49.138;8.900;2023-06-14T04:24:44;6.35;;;4.90;;
19036;SDS011;9651;49.138;8.900;2023-06-14T04:28:46;5.28;;;4.78;;
19036;SDS011;9651;49.138;8.900;2023-06-14T04:32:49;5.32;;;4.53;;
19036;SDS011;9651;49.138;8.900;2023-06-14T04:36:56;5.85;;;4.53;;
19036;SDS011;9651;49.138;8.900;2023-06-14T04:41:10;6.57;;;4.80;;
19036;SDS011;9651;49.138;8.900;2023-06-14T04:45:13;8.05;;;5.00;;
19036;SDS011;9651;49.138;8.900;2023-06-14T04:49:16;6.90;;;4.40;;
19036;SDS011;9651;49.138;8.900;2023-06-14T04:53:18;5.32;;;4.82;;
19036;SDS011;9651;49.138;8.900;2023-06-14T04:57:25;5.57;;;4.60;;
19036;SDS011;9651;49.138;8.900;2023-06-14T05:01:32;5.07;;;4.68;;
19036;SDS011;9651;49.138;8.900;2023-06-14T05:05:34;7.45;;;4.18;;
19036;SDS011;9651;49.138;8.900;2023-06-14T05:09:36;6.55;;;4.57;;
19036;SDS011;9651;49.138;8.900;2023-06-14T05:13:41;6.82;;;4.90;;
19036;SDS011;9651;49.138;8.900;2023-06-14T05:17:45;7.85;;;4.90;;
19036;SDS011;9651;49.138;8.900;2023-06-14T05:21:53;6.65;;;4.85;;
19036;SDS011;9651;49.138;8.900;2023-06-14T05:25:55;5.40;;;4.72;;
19036;SDS011;9651;49.138;8.900;2023-06-14T05:29:59;5.50;;;4.25;;
19036;SDS011;9651;49.138;8.900;2023-06-14T05:34:00;6.00;;;4.53;;
19036;SDS011;9651;49.138;8.900;2023-06-14T05:38:02;14.57;;;5.07;;
19036;SDS011;9651;49.138;8.900;2023-06-14T05:42:05;8.13;;;4.45;;
19036;SDS011;9651;49.138;8.900;2023-06-14T05:46:08;7.68;;;4.75;;
19036;SDS011;9651;49.138;8.900;2023-06-14T05:50:10;7.57;;;4.72;;
19036;SDS011;9651;49.138;8.900;2023-06-14T05:54:12;8.90;;;4.50;;
19036;SDS011;9651;49.138;8.900;2023-06-14T05:58:14;6.55;;;4.65;;
19036;SDS011;9651;49.138;8.900;2023-06-14T06:02:17;9.30;;;4.63;;
19036;SDS011;9651;49.138;8.900;2023-06-14T06:06:19;8.30;;;4.25;;
19036;SDS011;9651;49.138;8.900;2023-06-14T06:10:21;9.10;;;4.72;;
19036;SDS011;9651;49.138;8.900;2023-06-14T06:14:23;6.18;;;4.55;;
19036;SDS011;9651;49.138;8.900;2023-06-14T06:18:26;9.80;;;4.93;;
19036;SDS011;9651;49.138;8.900;2023-06-14T06:22:28;5.13;;;4.65;;
19036;SDS011;9651;49.138;8.900;2023-06-14T06:26:30;9.23;;;4.35;;
19036;SDS011;9651;49.138;8.900;2023-06-14T06:30:32;7.13;;;4.38;;
19036;SDS011;9651;49.138;8.900;2023-06-14T06:34:36;7.72;;;4.97;;
19036;SDS011;9651;49.138;8.900;2023-06-14T06:38:37;4.82;;;4.22;;
19036;SDS011;9651;49.138;8.900;2023-06-14T06:42:39;6.00;;;3.88;;
19036;SDS011;9651;49.138;8.900;2023-06-14T06:46:45;4.60;;;4.07;;
19036;SDS011;9651;49.138;8.900;2023-06-14T06:50:48;6.65;;;4.50;;
19036;SDS011;9651;49.138;8.900;2023-06-14T06:54:51;5.60;;;3.80;;
19036;SDS011;9651;49.138;8.900;2023-06-14T06:58:55;6.35;;;4.40;;
19036;SDS011;9651;49.138;8.900;2023-06-14T07:02:57;6.13;;;4.00;;
19036;SDS011;9651;49.138;8.900;2023-06-14T07:07:00;6.63;;;3.85;;
19036;SDS011;9651;49.138;8.900;2023-06-14T07:11:02;5.70;;;4.30;;
19036;SDS011;9651;49.138;8.900;2023-06-14T07:15:05;5.20;;;4.00;;
19036;SDS011;9651;49.138;8.900;2023-06-14T07:19:08;5.40;;;4.00;;
19036;SDS011;9651;49.138;8.900;2023-06-14T07:23:12;6.25;;;3.72;;
19036;SDS011;9651;49.138;8.900;2023-06-14T07:27:14;7.57;;;3.80;;
19036;SDS011;9651;49.138;8.900;2023-06-14T07:31:16;4.25;;;3.85;;
19036;SDS011;9651;49.138;8.900;2023-06-14T07:35:19;5.15;;;4.22;;
19036;SDS011;9651;49.138;8.900;2023-06-14T07:39:22;5.22;;;4.10;;
19036;SDS011;9651;49.138;8.900;2023-06-14T07:43:24;8.48;;;3.80;;
19036;SDS011;9651;49.138;8.900;2023-06-14T07:47:26;6.55;;;3.95;;
19036;SDS011;9651;49.138;8.900;2023-06-14T07:51:28;4.47;;;4.03;;
19036;SDS011;9651;49.138;8.900;2023-06-14T07:55:31;5.80;;;4.07;;
19036;SDS011;9651;49.138;8.900;2023-06-14T07:59:36;7.10;;;4.15;;
19036;SDS011;9651;49.138;8.900;2023-06-14T08:03:38;5.47;;;4.15;;
19036;SDS011;9651;49.138;8.900;2023-06-14T08:07:40;6.07;;;4.10;;
19036;SDS011;9651;49.138;8.900;2023-06-14T08:11:44;4.75;;;3.95;;
19036;SDS011;9651;49.138;8.900;2023-06-14T08:15:46;9.88;;;3.60;;
19036;SDS011;9651;49.138;8.900;2023-06-14T08:19:47;7.65;;;3.45;;
19036;SDS011;9651;49.138;8.900;2023-06-14T08:23:49;3.83;;;3.47;;
19036;SDS011;9651;49.138;8.900;2023-06-14T08:27:54;7.10;;;4.57;;
19036;SDS011;9651;49.138;8.900;2023-06-14T08:31:56;6.03;;;3.85;;
19036;SDS011;9651;49.138;8.900;2023-06-14T08:35:58;7.70;;;3.75;;
19036;SDS011;9651;49.138;8.900;2023-06-14T08:40:00;7.20;;;4.32;;
19036;SDS011;9651;49.138;8.900;2023-06-14T08:44:06;4.00;;;3.60;;
19036;SDS011;9651;49.138;8.900;2023-06-14T08:48:08;4.40;;;4.00;;
19036;SDS011;9651;49.138;8.900;2023-06-14T08:52:11;9.10;;;3.97;;
19036;SDS011;9651;49.138;8.900;2023-06-14T08:56:14;4.55;;;3.67;;
19036;SDS011;9651;49.138;8.900;2023-06-14T09:00:18;4.90;;;3.58;;
19036;SDS011;9651;49.138;8.900;2023-06-14T09:04:21;5.13;;;3.15;;
19036;SDS011;9651;49.138;8.900;2023-06-14T09:08:24;3.47;;;3.00;;
19036;SDS011;9651;49.138;8.900;2023-06-14T09:12:27;4.88;;;3.67;;
19036;SDS011;9651;49.138;8.900;2023-06-14T09:16:33;4.50;;;3.50;;
19036;SDS011;9651;49.138;8.900;2023-06-14T09:20:35;4.68;;;3.58;;
19036;SDS011;9651;49.138;8.900;2023-06-14T09:24:38;6.75;;;3.47;;
19036;SDS011;9651;49.138;8.900;2023-06-14T09:28:43;6.95;;;3.53;;
19036;SDS011;9651;49.138;8.900;2023-06-14T09:32:47;7.00;;;3.50;;
19036;SDS011;9651;49.138;8.900;2023-06-14T09:36:50;4.72;;;3.67;;
19036;SDS011;9651;49.138;8.900;2023-06-14T09:40:52;5.75;;;3.58;;
19036;SDS011;9651;49.138;8.900;2023-06-14T09:44:57;5.55;;;3.42;;
19036;SDS011;9651;49.138;8.900;2023-06-14T09:49:01;5.32;;;3.55;;
19036;SDS011;9651;49.138;8.900;2023-06-14T09:53:06;4.70;;;3.42;;
19036;SDS011;9651;49.138;8.900;2023-06-14T09:57:09;7.55;;;3.58;;
19036;SDS011;9651;49.138;8.900;2023-06-14T10:01:12;4.53;;;3.28;;
19036;SDS011;9651;49.138;8.900;2023-06-14T10:05:16;3.50;;;3.10;;
19036;SDS011;9651;49.138;8.900;2023-06-14T10:09:21;18.45;;;5.28;;
19036;SDS011;9651;49.138;8.900;2023-06-14T10:13:23;7.00;;;2.85;;
19036;SDS011;9651;49.138;8.900;2023-06-14T10:17:27;5.88;;;2.97;;
19036;SDS011;9651;49.138;8.900;2023-06-14T10:21:41;3.40;;;2.95;;
19036;SDS011;9651;49.138;8.900;2023-06-14T10:25:56;4.53;;;2.85;;
19036;SDS011;9651;49.138;8.900;2023-06-14T10:30:03;3.30;;;2.97;;
19036;SDS011;9651;49.138;8.900;2023-06-14T10:34:08;3.50;;;3.20;;
19036;SDS011;9651;49.138;8.900;2023-06-14T10:38:12;5.53;;;2.90;;
19036;SDS011;9651;49.138;8.900;2023-06-14T10:42:14;5.25;;;3.22;;
19036;SDS011;9651;49.138;8.900;2023-06-14T10:46:17;4.72;;;3.13;;
19036;SDS011;9651;49.138;8.900;2023-06-14T10:50:27;4.47;;;2.80;;
19036;SDS011;9651;49.138;8.900;2023-06-14T10:54:31;3.50;;;3.20;;
19036;SDS011;9651;49.138;8.900;2023-06-14T10:58:33;6.88;;;3.20;;
19036;SDS011;9651;49.138;8.900;2023-06-14T11:02:42;5.13;;;2.67;;
19036;SDS011;9651;49.138;8.900;2023-06-14T11:07:06;6.30;;;3.00;;
19036;SDS011;9651;49.138;8.900;2023-06-14T11:11:30;6.22;;;3.10;;
19036;SDS011;9651;49.138;8.900;2023-06-14T11:15:35;3.83;;;3.00;;
19036;SDS011;9651;49.138;8.900;2023-06-14T11:19:37;5.35;;;3.35;;
19036;SDS011;9651;49.138;8.900;2023-06-14T11:23:39;6.43;;;3.65;;
19036;SDS011;9651;49.138;8.900;2023-06-14T11:27:43;4.03;;;3.28;;
19036;SDS011;9651;49.138;8.900;2023-06-14T11:31:46;3.50;;;3.20;;
19036;SDS011;9651;49.138;8.900;2023-06-14T11:35:48;3.45;;;3.13;;
19036;SDS011;9651;49.138;8.900;2023-06-14T11:39:50;3.78;;;3.38;;
19036;SDS011;9651;49.138;8.900;2023-06-14T11:43:53;3.75;;;3.03;;
19036;SDS011;9651;49.138;8.900;2023-06-14T11:47:55;3.30;;;3.03;;
19036;SDS011;9651;49.138;8.900;2023-06-14T11:51:58;6.05;;;2.90;;
19036;SDS011;9651;49.138;8.900;2023-06-14T11:56:00;5.35;;;2.85;;
19036;SDS011;9651;49.138;8.900;2023-06-14T12:00:05;3.53;;;2.67;;
19036;SDS011;9651;49.138;8.900;2023-06-14T12:04:12;4.32;;;2.58;;
19036;SDS011;9651;49.138;8.900;2023-06-14T12:08:14;3.38;;;3.08;;
19036;SDS011;9651;49.138;8.900;2023-06-14T12:12:18;3.50;;;2.95;;
19036;SDS011;9651;49.138;8.900;2023-06-14T12:16:29;3.58;;;3.10;;
19036;SDS011;9651;49.138;8.900;2023-06-14T12:20:31;6.55;;;3.05;;
19036;SDS011;9651;49.138;8.900;2023-06-14T12:24:35;4.90;;;2.78;;
19036;SDS011;9651;49.138;8.900;2023-06-14T12:28:37;4.43;;;2.60;;
19036;SDS011;9651;49.138;8.900;2023-06-14T12:32:42;3.72;;;2.85;;
19036;SDS011;9651;49.138;8.900;2023-06-14T12:36:45;7.53;;;3.30;;
19036;SDS011;9651;49.138;8.900;2023-06-14T12:40:47;6.18;;;3.20;;
19036;SDS011;9651;49.138;8.900;2023-06-14T12:44:49;2.80;;;2.60;;
19036;SDS011;9651;49.138;8.900;2023-06-14T12:48:52;3.75;;;3.13;;
19036;SDS011;9651;49.138;8.900;2023-06-14T12:52:54;4.82;;;3.50;;
19036;SDS011;9651;49.138;8.900;2023-06-14T12:56:56;4.53;;;3.20;;
19036;SDS011;9651;49.138;8.900;2023-06-14T13:00:58;4.15;;;3.17;;
19036;SDS011;9651;49.138;8.900;2023-06-14T13:05:01;4.18;;;3.05;;
19036;SDS011;9651;49.138;8.900;2023-06-14T13:09:04;3.60;;;2.80;;
19036;SDS011;9651;49.138;8.900;2023-06-14T13:13:06;4.90;;;3.38;;
19036;SDS011;9651;49.138;8.900;2023-06-14T13:17:09;4.38;;;2.92;;
19036;SDS011;9651;49.138;8.900;2023-06-14T13:21:12;3.85;;;3.30;;
19036;SDS011;9651;49.138;8.900;2023-06-14T13:25:14;6.95;;;3.25;;
19036;SDS011;9651;49.138;8.900;2023-06-14T13:29:16;4.22;;;3.05;;
19036;SDS011;9651;49.138;8.900;2023-06-14T13:33:18;5.72;;;3.08;;
19036;SDS011;9651;49.138;8.900;2023-06-14T13:37:21;3.78;;;3.10;;
19036;SDS011;9651;49.138;8.900;2023-06-14T13:41:23;3.17;;;2.88;;
19036;SDS011;9651;49.138;8.900;2023-06-14T13:45:27;4.97;;;3.38;;
19036;SDS011;9651;49.138;8.900;2023-06-14T13:49:28;4.97;;;3.00;;
19036;SDS011;9651;49.138;8.900;2023-06-14T13:53:32;3.53;;;2.67;;
19036;SDS011;9651;49.138;8.900;2023-06-14T13:57:34;3.83;;;3.20;;
19036;SDS011;9651;49.138;8.900;2023-06-14T14:01:36;7.50;;;3.00;;
19036;SDS011;9651;49.138;8.900;2023-06-14T14:05:38;3.53;;;3.22;;
19036;SDS011;9651;49.138;8.900;2023-06-14T14:09:41;3.53;;;3.08;;
19036;SDS011;9651;49.138;8.900;2023-06-14T14:13:43;7.53;;;3.40;;
19036;SDS011;9651;49.138;8.900;2023-06-14T14:17:45;3.65;;;3.22;;
19036;SDS011;9651;49.138;8.900;2023-06-14T14:21:47;4.93;;;3.30;;
19036;SDS011;9651;49.138;8.900;2023-06-14T14:25:50;4.90;;;3.20;;
19036;SDS011;9651;49.138;8.900;2023-06-14T14:29:52;5.50;;;3.17;;
19036;SDS011;9651;49.138;8.900;2023-06-14T14:33:54;4.55;;;3.17;;
19036;SDS011;9651;49.138;8.900;2023-06-14T14:37:56;4.97;;;3.40;;
19036;SDS011;9651;49.138;8.900;2023-06-14T14:41:59;3.25;;;2.85;;
19036;SDS011;9651;49.138;8.900;2023-06-14T14:46:01;5.03;;;3.17;;
19036;SDS011;9651;49.138;8.900;2023-06-14T14:50:03;4.05;;;3.10;;
19036;SDS011;9651;49.138;8.900;2023-06-14T14:54:08;10.30;;;3.53;;
19036;SDS011;9651;49.138;8.900;2023-06-14T14:58:12;6.85;;;3.35;;
19036;SDS011;9651;49.138;8.900;2023-06-14T15:02:17;3.70;;;3.00;;
19036;SDS011;9651;49.138;8.900;2023-06-14T15:06:19;4.60;;;3.03;;
19036;SDS011;9651;49.138;8.900;2023-06-14T15:10:20;4.53;;;2.95;;
19036;SDS011;9651;49.138;8.900;2023-06-14T15:14:24;8.07;;;3.20;;
19036;SDS011;9651;49.138;8.900;2023-06-14T15:18:26;4.25;;;2.88;;
19036;SDS011;9651;49.138;8.900;2023-06-14T15:22:27;4.97;;;3.13;;
19036;SDS011;9651;49.138;8.900;2023-06-14T15:26:29;3.00;;;2.70;;
19036;SDS011;9651;49.138;8.900;2023-06-14T15:30:33;5.18;;;3.00;;
19036;SDS011;9651;49.138;8.900;2023-06-14T15:34:34;4.07;;;2.80;;
19036;SDS011;9651;49.138;8.900;2023-06-14T15:38:37;3.70;;;3.20;;
19036;SDS011;9651;49.138;8.900;2023-06-14T15:42:39;5.15;;;2.90;;
19036;SDS011;9651;49.138;8.900;2023-06-14T15:46:43;3.58;;;3.08;;
19036;SDS011;9651;49.138;8.900;2023-06-14T15:50:45;3.38;;;3.00;;
19036;SDS011;9651;49.138;8.900;2023-06-14T15:54:47;4.00;;;3.03;;
19036;SDS011;9651;49.138;8.900;2023-06-14T15:58:49;3.85;;;2.90;;
19036;SDS011;9651;49.138;8.900;2023-06-14T16:02:52;3.50;;;3.20;;
19036;SDS011;9651;49.138;8.900;2023-06-14T16:06:54;4.80;;;3.10;;
19036;SDS011;9651;49.138;8.900;2023-06-14T16:10:56;3.35;;;2.97;;
19036;SDS011;9651;49.138;8.900;2023-06-14T16:14:58;5.78;;;3.22;;
19036;SDS011;9651;49.138;8.900;2023-06-14T16:19:01;3.60;;;3.30;;
19036;SDS011;9651;49.138;8.900;2023-06-14T16:23:04;5.65;;;3.38;;
19036;SDS011;9651;49.138;8.900;2023-06-14T16:27:06;4.80;;;2.75;;
19036;SDS011;9651;49.138;8.900;2023-06-14T16:31:09;3.85;;;2.97;;
19036;SDS011;9651;49.138;8.900;2023-06-14T16:35:12;3.88;;;3.40;;
19036;SDS011;9651;49.138;8.900;2023-06-14T16:39:14;5.75;;;3.10;;
19036;SDS011;9651;49.138;8.900;2023-06-14T16:43:16;3.67;;;3.33;;
19036;SDS011;9651;49.138;8.900;2023-06-14T16:47:18;6.10;;;3.53;;
19036;SDS011;9651;49.138;8.900;2023-06-14T16:51:21;3.72;;;3.30;;
19036;SDS011;9651;49.138;8.900;2023-06-14T16:55:23;6.88;;;3.58;;
19036;SDS011;9651;49.138;8.900;2023-06-14T16:59:25;4.18;;;3.28;;
19036;SDS011;9651;49.138;8.900;2023-06-14T17:03:27;3.47;;;3.17;;
19036;SDS011;9651;49.138;8.900;2023-06-14T17:07:30;3.85;;;3.17;;
19036;SDS011;9651;49.138;8.900;2023-06-14T17:11:32;4.93;;;3.25;;
19036;SDS011;9651;49.138;8.900;2023-06-14T17:15:34;11.55;;;3.40;;
19036;SDS011;9651;49.138;8.900;2023-06-14T17:19:36;5.40;;;3.17;;
19036;SDS011;9651;49.138;8.900;2023-06-14T17:23:39;4.95;;;3.47;;
19036;SDS011;9651;49.138;8.900;2023-06-14T17:27:41;5.47;;;4.47;;
19036;SDS011;9651;49.138;8.900;2023-06-14T17:31:42;5.95;;;3.55;;
19036;SDS011;9651;49.138;8.900;2023-06-14T17:35:45;4.57;;;3.53;;
19036;SDS011;9651;49.138;8.900;2023-06-14T17:39:48;4.10;;;3.33;;
19036;SDS011;9651;49.138;8.900;2023-06-14T17:43:50;7.68;;;3.65;;
19036;SDS011;9651;49.138;8.900;2023-06-14T17:47:52;4.45;;;3.47;;
19036;SDS011;9651;49.138;8.900;2023-06-14T17:51:54;4.55;;;3.08;;
19036;SDS011;9651;49.138;8.900;2023-06-14T17:55:59;4.40;;;3.78;;
19036;SDS011;9651;49.138;8.900;2023-06-14T18:00:03;7.03;;;3.63;;
19036;SDS011;9651;49.138;8.900;2023-06-14T18:04:12;6.13;;;3.55;;
19036;SDS011;9651;49.138;8.900;2023-06-14T18:08:14;7.18;;;3.50;;
19036;SDS011;9651;49.138;8.900;2023-06-14T18:12:17;6.60;;;3.50;;
19036;SDS011;9651;49.138;8.900;2023-06-14T18:16:19;5.00;;;3.20;;
19036;SDS011;9651;49.138;8.900;2023-06-14T18:20:21;6.50;;;3.40;;
19036;SDS011;9651;49.138;8.900;2023-06-14T18:24:24;4.10;;;3.67;;
19036;SDS011;9651;49.138;8.900;2023-06-14T18:28:27;4.88;;;3.40;;
19036;SDS011;9651;49.138;8.900;2023-06-14T18:32:29;4.10;;;3.13;;
19036;SDS011;9651;49.138;8.900;2023-06-14T18:36:33;5.20;;;3.17;;
19036;SDS011;9651;49.138;8.900;2023-06-14T18:40:37;7.30;;;3.42;;
19036;SDS011;9651;49.138;8.900;2023-06-14T18:44:41;5.97;;;3.60;;
19036;SDS011;9651;49.138;8.900;2023-06-14T18:48:42;3.90;;;3.50;;
19036;SDS011;9651;49.138;8.900;2023-06-14T18:52:45;8.18;;;3.33;;
19036;SDS011;9651;49.138;8.900;2023-06-14T18:56:46;6.32;;;4.15;;
19036;SDS011;9651;49.138;8.900;2023-06-14T19:00:50;5.88;;;4.60;;
19036;SDS011;9651;49.138;8.900;2023-06-14T19:04:52;6.57;;;4.07;;
19036;SDS011;9651;49.138;8.900;2023-06-14T19:08:54;6.55;;;4.40;;
19036;SDS011;9651;49.138;8.900;2023-06-14T19:12:56;4.53;;;3.45;;
19036;SDS011;9651;49.138;8.900;2023-06-14T19:16:59;3.92;;;3.45;;
19036;SDS011;9651;49.138;8.900;2023-06-14T19:21:01;8.35;;;4.28;;
19036;SDS011;9651;49.138;8.900;2023-06-14T19:25:03;4.68;;;3.95;;
19036;SDS011;9651;49.138;8.900;2023-06-14T19:29:05;10.25;;;5.22;;
19036;SDS011;9651;49.138;8.900;2023-06-14T19:33:09;5.18;;;3.80;;
19036;SDS011;9651;49.138;8.900;2023-06-14T19:37:12;5.72;;;4.25;;
19036;SDS011;9651;49.138;8.900;2023-06-14T19:41:15;4.03;;;3.60;;
19036;SDS011;9651;49.138;8.900;2023-06-14T19:45:19;4.28;;;3.53;;
19036;SDS011;9651;49.138;8.900;2023-06-14T19:49:22;6.53;;;3.70;;
19036;SDS011;9651;49.138;8.900;2023-06-14T19:53:24;4.22;;;3.45;;
19036;SDS011;9651;49.138;8.900;2023-06-14T19:57:26;6.55;;;3.28;;
19036;SDS011;9651;49.138;8.900;2023-06-14T20:01:29;3.67;;;3.38;;
19036;SDS011;9651;49.138;8.900;2023-06-14T20:05:32;3.28;;;2.97;;
19036;SDS011;9651;49.138;8.900;2023-06-14T20:09:34;5.68;;;3.22;;
19036;SDS011;9651;49.138;8.900;2023-06-14T20:13:37;6.47;;;3.38;;
19036;SDS011;9651;49.138;8.900;2023-06-14T20:17:38;3.88;;;3.30;;
19036;SDS011;9651;49.138;8.900;2023-06-14T20:21:42;6.40;;;3.55;;
19036;SDS011;9651;49.138;8.900;2023-06-14T20:25:44;5.53;;;3.28;;
19036;SDS011;9651;49.138;8.900;2023-06-14T20:29:46;4.80;;;3.50;;
19036;SDS011;9651;49.138;8.900;2023-06-14T20:33:47;8.60;;;3.90;;
19036;SDS011;9651;49.138;8.900;2023-06-14T20:37:51;5.47;;;3.92;;
19036;SDS011;9651;49.138;8.900;2023-06-14T20:41:52;5.15;;;3.28;;
19036;SDS011;9651;49.138;8.900;2023-06-14T20:45:56;5.78;;;3.63;;
19036;SDS011;9651;49.138;8.900;2023-06-14T20:49:58;4.30;;;3.35;;
19036;SDS011;9651;49.138;8.900;2023-06-14T20:54:02;3.58;;;2.95;;
19036;SDS011;9651;49.138;8.900;2023-06-14T20:58:04;5.18;;;3.45;;
19036;SDS011;9651;49.138;8.900;2023-06-14T21:02:06;3.65;;;3.35;;
19036;SDS011;9651;49.138;8.900;2023-06-14T21:06:11;3.60;;;3.17;;
19036;SDS011;9651;49.138;8.900;2023-06-14T21:10:16;4.00;;;3.25;;
19036;SDS011;9651;49.138;8.900;2023-06-14T21:14:18;5.18;;;3.38;;
19036;SDS011;9651;49.138;8.900;2023-06-14T21:18:20;4.28;;;3.75;;
19036;SDS011;9651;49.138;8.900;2023-06-14T21:22:22;5.75;;;3.58;;
19036;SDS011;9651;49.138;8.900;2023-06-14T21:26:25;4.10;;;3.17;;
19036;SDS011;9651;49.138;8.900;2023-06-14T21:30:31;6.63;;;3.55;;
19036;SDS011;9651;49.138;8.900;2023-06-14T21:34:34;4.78;;;3.58;;
19036;SDS011;9651;49.138;8.900;2023-06-14T21:38:37;6.40;;;3.17;;
19036;SDS011;9651;49.138;8.900;2023-06-14T21:42:40;5.53;;;3.42;;
19036;SDS011;9651;49.138;8.900;2023-06-14T21:46:42;3.75;;;3.22;;
19036;SDS011;9651;49.138;8.900;2023-06-14T21:50:44;5.75;;;3.55;;
19036;SDS011;9651;49.138;8.900;2023-06-14T21:54:52;5.88;;;3.10;;
19036;SDS011;9651;49.138;8.900;2023-06-14T21:58:57;3.80;;;3.40;;
19036;SDS011;9651;49.138;8.900;2023-06-14T22:02:59;4.55;;;3.10;;
19036;SDS011;9651;49.138;8.900;2023-06-14T22:07:01;4.80;;;3.17;;
19036;SDS011;9651;49.138;8.900;2023-06-14T22:11:03;3.72;;;3.10;;
19036;SDS011;9651;49.138;8.900;2023-06-14T22:15:09;4.20;;;3.20;;
19036;SDS011;9651;49.138;8.900;2023-06-14T22:19:12;4.68;;;3.10;;
19036;SDS011;9651;49.138;8.900;2023-06-14T22:23:15;5.43;;;2.65;;
19036;SDS011;9651;49.138;8.900;2023-06-14T22:27:17;3.72;;;3.30;;
19036;SDS011;9651;49.138;8.900;2023-06-14T22:31:21;3.50;;;2.92;;
19036;SDS011;9651;49.138;8.900;2023-06-14T22:35:23;6.20;;;2.67;;
19036;SDS011;9651;49.138;8.900;2023-06-14T22:39:25;4.53;;;3.22;;
19036;SDS011;9651;49.138;8.900;2023-06-14T22:43:27;5.03;;;3.42;;
19036;SDS011;9651;49.138;8.900;2023-06-14T22:47:30;4.50;;;3.13;;
19036;SDS011;9651;49.138;8.900;2023-06-14T22:51:32;4.05;;;3.00;;
19036;SDS011;9651;49.138;8.900;2023-06-14T22:55:34;3.75;;;3.10;;
19036;SDS011;9651;49.138;8.900;2023-06-14T22:59:36;4.72;;;3.20;;
19036;SDS011;9651;49.138;8.900;2023-06-14T23:03:39;4.88;;;3.03;;
19036;SDS011;9651;49.138;8.900;2023-06-14T23:07:42;4.78;;;3.05;;
19036;SDS011;9651;49.138;8.900;2023-06-14T23:11:44;3.75;;;3.20;;
19036;SDS011;9651;49.138;8.900;2023-06-14T23:15:46;4.50;;;3.10;;
19036;SDS011;9651;49.138;8.900;2023-06-14T23:19:49;3.97;;;3.20;;
19036;SDS011;9651;49.138;8.900;2023-06-14T23:23:51;4.20;;;3.45;;
19036;SDS011;9651;49.138;8.900;2023-06-14T23:27:54;3.30;;;3.00;;
19036;SDS011;9651;49.138;8.900;2023-06-14T23:31:56;4.40;;;3.45;;
19036;SDS011;9651;49.138;8.900;2023-06-14T23:36:01;3.28;;;2.97;;
19036;SDS011;9651;49.138;8.900;2023-06-14T23:40:04;3.63;;;2.85;;
19036;SDS011;9651;49.138;8.900;2023-06-14T23:44:10;3.05;;;2.65;;
19036;SDS011;9651;49.138;8.900;2023-06-14T23:48:13;3.53;;;3.17;;
19036;SDS011;9651;49.138;8.900;2023-06-14T23:52:17;3.58;;;2.97;;
19036;SDS011;9651;49.138;8.900;2023-06-14T23:56:21;4.65;;;3.53;;
